createdAt,value
2018-09-13T00:00:04.308Z,98173.80
2018-09-13T00:00:35.945Z,98177.66
2018-09-13T00:01:07.531Z,98172.61
2018-09-13T00:01:39.134Z,98176.48
2018-09-13T00:02:10.724Z,98177.36
2018-09-13T00:02:42.326Z,98173.58
2018-09-13T00:03:13.930Z,98172.33
2018-09-13T00:03:45.535Z,98174.94
2018-09-13T00:04:17.139Z,98173.25
2018-09-13T00:04:48.738Z,98171.98
2018-09-13T00:05:20.324Z,98178.45
2018-09-13T00:05:51.972Z,98171.19
2018-09-13T00:06:23.543Z,98175.08
2018-09-13T00:06:55.132Z,98173.78
2018-09-13T00:07:26.738Z,98170.41
2018-09-13T00:07:58.327Z,98168.73
2018-09-13T00:08:29.912Z,98173.43
2018-09-13T00:09:01.496Z,98175.55
2018-09-13T00:09:33.110Z,98171.28
2018-09-13T00:10:04.705Z,98170.02
2018-09-13T00:10:36.588Z,98171.81
2018-09-13T00:11:08.213Z,98167.50
2018-09-13T00:11:39.817Z,98167.52
2018-09-13T00:12:11.408Z,98171.37
2018-09-13T00:12:43.014Z,98168.39
2018-09-13T00:13:14.622Z,98170.10
2018-09-13T00:13:46.226Z,98168.44
2018-09-13T00:14:17.820Z,98170.59
2018-09-13T00:14:49.407Z,98176.06
2018-09-13T00:15:21.000Z,98173.41
2018-09-13T00:15:52.629Z,98170.83
2018-09-13T00:16:24.234Z,98172.91
2018-09-13T00:16:55.820Z,98172.05
2018-09-13T00:17:27.425Z,98172.47
2018-09-13T00:17:59.030Z,98172.89
2018-09-13T00:18:30.625Z,98176.30
2018-09-13T00:19:02.212Z,98178.47
2018-09-13T00:19:33.816Z,98170.77
2018-09-13T00:20:05.409Z,98174.20
2018-09-13T00:20:37.000Z,98174.63
2018-09-13T00:21:08.629Z,98176.41
2018-09-13T00:21:40.234Z,98173.01
2018-09-13T00:22:11.837Z,98173.43
2018-09-13T00:22:43.423Z,98174.29
2018-09-13T00:23:15.042Z,98173.02
2018-09-13T00:23:46.646Z,98174.73
2018-09-13T00:24:18.226Z,98173.50
2018-09-13T00:24:49.802Z,98173.09
2018-09-13T00:25:21.396Z,98172.63
2018-09-13T00:25:53.026Z,98174.26
2018-09-13T00:26:24.622Z,98176.30
2018-09-13T00:26:56.222Z,98175.73
2018-09-13T00:27:27.812Z,98174.88
2018-09-13T00:27:59.415Z,98179.13
2018-09-13T00:28:30.994Z,98183.36
2018-09-13T00:29:02.571Z,98174.88
2018-09-13T00:29:34.169Z,98182.16
2018-09-13T00:30:05.748Z,98178.79
2018-09-13T00:30:37.353Z,98178.80
2018-09-13T00:31:08.982Z,98180.11
2018-09-13T00:31:40.581Z,98181.88
2018-09-13T00:32:12.171Z,98181.02
2018-09-13T00:32:43.755Z,98184.45
2018-09-13T00:33:15.356Z,98181.88
2018-09-13T00:33:46.962Z,98183.59
2018-09-13T00:34:18.591Z,98150.00
2018-09-13T00:34:50.199Z,98179.69
2018-09-13T00:35:21.787Z,98174.97
2018-09-13T00:35:53.782Z,98169.39
2018-09-13T00:36:25.388Z,98174.53
2018-09-13T00:36:56.980Z,98172.81
2018-09-13T00:37:28.582Z,98166.84
2018-09-13T00:38:00.176Z,98167.31
2018-09-13T00:38:31.754Z,98166.03
2018-09-13T00:39:03.340Z,98169.02
2018-09-13T00:39:34.931Z,98165.98
2018-09-13T00:40:06.515Z,98162.13
2018-09-13T00:40:38.094Z,98163.89
2018-09-13T00:41:09.708Z,98168.55
2018-09-13T00:41:41.307Z,98165.61
2018-09-13T00:42:12.909Z,98165.19
2018-09-13T00:42:44.518Z,98164.34
2018-09-13T00:43:16.112Z,98166.91
2018-09-13T00:43:47.714Z,98165.20
2018-09-13T00:44:19.327Z,98169.90
2018-09-13T00:44:50.929Z,98166.48
2018-09-13T00:45:22.535Z,98169.94
2018-09-13T00:45:54.128Z,98170.84
2018-09-13T00:46:25.734Z,98170.84
2018-09-13T00:46:57.324Z,98175.14
2018-09-13T00:47:28.912Z,98174.73
2018-09-13T00:48:00.514Z,98171.35
2018-09-13T00:48:32.103Z,98175.20
2018-09-13T00:49:03.764Z,98181.20
2018-09-13T00:49:35.328Z,98174.80
2018-09-13T00:50:06.930Z,98176.96
2018-09-13T00:50:38.521Z,98182.09
2018-09-13T00:51:10.471Z,98173.97
2018-09-13T00:51:42.056Z,98183.00
2018-09-13T00:52:13.643Z,98180.81
2018-09-13T00:52:45.247Z,98178.24
2018-09-13T00:53:16.849Z,98182.08
2018-09-13T00:53:48.426Z,98176.09
2018-09-13T00:54:20.030Z,98178.73
2018-09-13T00:54:51.620Z,98182.08
2018-09-13T00:55:23.204Z,98177.36
2018-09-13T00:55:54.792Z,98181.22
2018-09-13T00:56:26.426Z,98182.92
2018-09-13T00:56:58.015Z,98183.38
2018-09-13T00:57:29.604Z,98180.78
2018-09-13T00:58:01.192Z,98183.34
2018-09-13T00:58:32.773Z,98179.07
2018-09-13T00:59:04.443Z,98153.09
2018-09-13T00:59:36.004Z,98174.38
2018-09-13T01:00:07.611Z,98174.39
2018-09-13T01:00:39.221Z,98173.97
2018-09-13T01:01:10.805Z,98173.95
2018-09-13T01:01:42.419Z,98170.59
2018-09-13T01:02:14.022Z,98171.87
2018-09-13T01:02:45.608Z,98170.61
2018-09-13T01:03:17.207Z,98172.31
2018-09-13T01:03:48.805Z,98171.47
2018-09-13T01:04:20.382Z,98182.16
2018-09-13T01:04:51.972Z,98176.59
2018-09-13T01:05:23.579Z,98177.01
2018-09-13T01:05:55.182Z,98177.01
2018-09-13T01:06:27.375Z,98173.59
2018-09-13T01:06:58.950Z,98176.60
2018-09-13T01:07:30.551Z,98172.33
2018-09-13T01:08:02.140Z,98177.88
2018-09-13T01:08:33.728Z,98171.91
2018-09-13T01:09:05.332Z,98174.47
2018-09-13T01:09:36.938Z,98174.05
2018-09-13T01:10:08.546Z,98171.06
2018-09-13T01:10:40.145Z,98174.48
2018-09-13T01:11:11.750Z,98172.77
2018-09-13T01:11:43.386Z,98173.63
2018-09-13T01:12:14.972Z,98172.77
2018-09-13T01:12:46.564Z,98172.77
2018-09-13T01:13:18.159Z,98170.64
2018-09-13T01:13:49.757Z,98174.91
2018-09-13T01:14:21.364Z,98170.25
2018-09-13T01:14:52.955Z,98171.05
2018-09-13T01:15:24.544Z,98169.83
2018-09-13T01:15:56.151Z,98174.53
2018-09-13T01:16:27.740Z,98171.14
2018-09-13T01:16:59.366Z,98168.22
2018-09-13T01:17:30.961Z,98169.58
2018-09-13T01:18:02.569Z,98170.46
2018-09-13T01:18:34.178Z,98175.23
2018-09-13T01:19:05.758Z,98172.28
2018-09-13T01:19:37.359Z,98173.61
2018-09-13T01:20:08.951Z,98174.05
2018-09-13T01:20:40.544Z,98174.55
2018-09-13T01:21:12.150Z,98172.84
2018-09-13T01:21:43.754Z,98171.16
2018-09-13T01:22:15.372Z,98173.73
2018-09-13T01:22:46.950Z,98171.22
2018-09-13T01:23:18.535Z,98170.38
2018-09-13T01:23:50.124Z,98169.55
2018-09-13T01:24:21.726Z,98168.70
2018-09-13T01:24:53.333Z,98169.61
2018-09-13T01:25:24.929Z,98165.78
2018-09-13T01:25:56.530Z,98169.64
2018-09-13T01:26:28.133Z,98167.20
2018-09-13T01:26:59.756Z,98168.84
2018-09-13T01:27:31.348Z,98168.00
2018-09-13T01:28:02.936Z,98166.73
2018-09-13T01:28:34.524Z,98165.92
2018-09-13T01:29:06.126Z,98165.48
2018-09-13T01:29:37.725Z,98164.21
2018-09-13T01:30:09.315Z,98162.93
2018-09-13T01:30:40.908Z,98162.51
2018-09-13T01:31:12.514Z,98153.51
2018-09-13T01:31:44.119Z,98162.13
2018-09-13T01:32:15.759Z,98159.52
2018-09-13T01:32:47.370Z,98162.08
2018-09-13T01:33:18.960Z,98171.06
2018-09-13T01:33:50.563Z,98163.43
2018-09-13T01:34:22.162Z,98165.52
2018-09-13T01:34:53.765Z,98164.66
2018-09-13T01:35:25.368Z,98164.66
2018-09-13T01:35:56.955Z,98165.49
2018-09-13T01:36:28.544Z,98164.28
2018-09-13T01:37:00.156Z,98165.59
2018-09-13T01:37:31.734Z,98164.36
2018-09-13T01:38:03.319Z,98163.10
2018-09-13T01:38:34.924Z,98165.67
2018-09-13T01:39:06.530Z,98155.84
2018-09-13T01:39:38.122Z,98161.45
2018-09-13T01:40:09.711Z,98164.41
2018-09-13T01:40:41.304Z,98155.03
2018-09-13T01:41:12.905Z,98161.88
2018-09-13T01:41:44.510Z,98158.89
2018-09-13T01:42:16.124Z,98164.05
2018-09-13T01:42:47.708Z,98167.47
2018-09-13T01:43:19.310Z,98158.98
2018-09-13T01:43:50.900Z,98164.89
2018-09-13T01:44:22.478Z,98161.91
2018-09-13T01:44:54.057Z,98162.84
2018-09-13T01:45:25.663Z,98164.92
2018-09-13T01:45:57.251Z,98162.84
2018-09-13T01:46:28.835Z,98159.44
2018-09-13T01:47:00.432Z,98163.70
2018-09-13T01:47:32.035Z,98159.87
2018-09-13T01:48:03.625Z,98162.48
2018-09-13T01:48:35.235Z,98161.64
2018-09-13T01:49:06.818Z,98160.80
2018-09-13T01:49:38.404Z,98156.53
2018-09-13T01:50:09.994Z,98160.43
2018-09-13T01:50:41.580Z,98151.04
2018-09-13T01:51:13.182Z,98165.14
2018-09-13T01:51:44.772Z,98160.80
2018-09-13T01:52:16.363Z,98160.85
2018-09-13T01:52:47.952Z,98157.39
2018-09-13T01:53:19.554Z,98160.85
2018-09-13T01:53:51.157Z,98161.66
2018-09-13T01:54:22.744Z,98163.42
2018-09-13T01:54:54.331Z,98162.66
2018-09-13T01:55:25.924Z,98163.87
2018-09-13T01:55:57.512Z,98169.84
2018-09-13T01:56:29.114Z,98164.73
2018-09-13T01:57:00.704Z,98164.33
2018-09-13T01:57:32.295Z,98164.33
2018-09-13T01:58:03.898Z,98166.03
2018-09-13T01:58:35.484Z,98158.75
2018-09-13T01:59:07.088Z,98165.05
2018-09-13T01:59:38.697Z,98162.83
2018-09-13T02:00:10.302Z,98141.47
2018-09-13T02:00:41.895Z,98161.38
2018-09-13T02:01:13.480Z,98161.30
2018-09-13T02:01:45.087Z,98166.84
2018-09-13T02:02:16.690Z,98160.34
2018-09-13T02:02:48.277Z,98167.20
2018-09-13T02:03:19.886Z,98164.64
2018-09-13T02:03:51.481Z,98167.22
2018-09-13T02:04:23.060Z,98169.00
2018-09-13T02:04:54.634Z,98162.95
2018-09-13T02:05:26.238Z,98163.41
2018-09-13T02:05:57.832Z,98167.70
2018-09-13T02:06:29.424Z,98168.97
2018-09-13T02:07:01.012Z,98168.14
2018-09-13T02:07:32.648Z,98162.65
2018-09-13T02:08:04.216Z,98165.66
2018-09-13T02:08:35.784Z,98168.66
2018-09-13T02:09:07.376Z,98165.25
2018-09-13T02:09:38.948Z,98164.41
2018-09-13T02:10:10.516Z,98167.88
2018-09-13T02:10:42.080Z,98160.17
2018-09-13T02:11:13.672Z,98165.75
2018-09-13T02:11:45.241Z,98159.77
2018-09-13T02:12:16.829Z,98170.86
2018-09-13T02:12:48.446Z,98167.86
2018-09-13T02:13:20.017Z,98160.16
2018-09-13T02:13:51.608Z,98162.23
2018-09-13T02:14:23.200Z,98164.78
2018-09-13T02:14:54.794Z,98161.31
2018-09-13T02:15:26.384Z,98164.72
2018-09-13T02:15:57.976Z,98159.17
2018-09-13T02:16:29.564Z,98158.30
2018-09-13T02:17:01.164Z,98154.91
2018-09-13T02:17:32.789Z,98158.75
2018-09-13T02:18:04.385Z,98156.67
2018-09-13T02:19:46.082Z,98151.12
2018-09-13T02:20:17.648Z,98148.14
2018-09-13T02:20:49.235Z,98148.19
2018-09-13T02:21:20.837Z,98142.66
2018-09-13T02:21:52.424Z,98143.52
2018-09-13T02:22:24.035Z,98140.10
2018-09-13T02:22:55.652Z,98142.67
2018-09-13T02:23:27.253Z,98132.48
2018-09-13T02:23:58.857Z,98134.17
2018-09-13T02:24:30.444Z,98138.90
2018-09-13T02:25:02.050Z,98138.96
2018-09-13T02:25:33.653Z,98137.26
2018-09-13T02:26:05.258Z,98140.67
2018-09-13T02:26:36.865Z,98141.13
2018-09-13T02:27:08.470Z,98140.27
2018-09-13T02:27:40.074Z,98133.48
2018-09-13T02:28:11.679Z,98137.27
2018-09-13T02:28:43.271Z,98140.69
2018-09-13T02:29:14.861Z,98142.31
2018-09-13T02:29:46.455Z,98138.40
2018-09-13T02:30:18.058Z,98140.07
2018-09-13T02:30:49.643Z,98142.14
2018-09-13T02:31:21.236Z,98140.41
2018-09-13T02:31:52.830Z,98139.49
2018-09-13T02:32:24.428Z,98115.58
2018-09-13T02:32:56.058Z,98142.40
2018-09-13T02:33:27.670Z,98140.69
2018-09-13T02:33:59.282Z,98135.14
2018-09-13T02:34:30.885Z,98137.33
2018-09-13T02:35:02.484Z,98145.89
2018-09-13T02:35:34.090Z,98144.62
2018-09-13T02:36:05.696Z,98142.92
2018-09-13T02:36:37.302Z,98144.27
2018-09-13T02:37:08.896Z,98145.16
2018-09-13T02:37:40.520Z,98140.49
2018-09-13T02:38:12.112Z,98143.88
2018-09-13T02:38:43.714Z,98140.95
2018-09-13T02:39:15.325Z,98142.67
2018-09-13T02:39:46.943Z,98137.58
2018-09-13T02:40:18.526Z,98141.83
2018-09-13T02:40:50.116Z,98139.99
2018-09-13T02:41:21.700Z,98142.31
2018-09-13T02:41:53.313Z,98140.27
2018-09-13T02:42:24.909Z,98135.38
2018-09-13T02:42:56.527Z,98136.75
2018-09-13T02:43:28.126Z,98142.07
2018-09-13T02:43:59.722Z,98140.09
2018-09-13T02:44:31.324Z,98133.41
2018-09-13T02:45:02.951Z,98133.52
2018-09-13T02:45:34.548Z,98134.02
2018-09-13T02:46:06.140Z,98127.28
2018-09-13T02:46:37.732Z,98134.63
2018-09-13T02:47:09.333Z,98124.90
2018-09-13T02:47:40.952Z,98123.70
2018-09-13T02:48:12.548Z,98124.62
2018-09-13T02:48:44.149Z,98123.41
2018-09-13T02:49:15.778Z,98121.81
2018-09-13T02:49:47.357Z,98118.03
2018-09-13T02:50:18.933Z,98119.75
2018-09-13T02:50:50.534Z,98123.70
2018-09-13T02:51:22.114Z,98124.17
2018-09-13T02:51:53.690Z,98120.78
2018-09-13T02:52:25.276Z,98119.06
2018-09-13T02:52:56.908Z,98123.33
2018-09-13T02:53:28.541Z,98122.50
2018-09-13T02:54:00.146Z,98085.54
2018-09-13T02:54:31.725Z,98120.86
2018-09-13T02:55:03.311Z,98118.31
2018-09-13T02:55:34.923Z,98124.02
2018-09-13T02:56:06.513Z,98122.66
2018-09-13T02:56:38.099Z,98118.74
2018-09-13T02:57:09.697Z,98121.72
2018-09-13T02:57:41.293Z,98119.17
2018-09-13T02:58:12.920Z,98115.76
2018-09-13T02:58:44.526Z,98118.39
2018-09-13T02:59:16.115Z,98118.05
2018-09-13T02:59:47.713Z,98114.62
2018-09-13T03:00:19.309Z,98120.50
2018-09-13T03:00:53.081Z,98117.00
2018-09-13T03:01:24.686Z,98114.78
2018-09-13T03:01:56.275Z,98118.48
2018-09-13T03:02:28.197Z,98118.02
2018-09-13T03:02:59.814Z,98118.80
2018-09-13T03:03:31.423Z,98117.02
2018-09-13T03:04:03.030Z,98112.25
2018-09-13T03:04:34.627Z,98112.30
2018-09-13T03:05:06.216Z,98113.08
2018-09-13T03:05:37.817Z,98116.44
2018-09-13T03:06:09.421Z,98115.14
2018-09-13T03:06:41.003Z,98114.70
2018-09-13T03:07:12.592Z,98112.56
2018-09-13T03:07:44.194Z,98119.81
2018-09-13T03:08:15.842Z,98114.27
2018-09-13T03:08:47.446Z,98118.09
2018-09-13T03:09:19.064Z,98119.81
2018-09-13T03:09:50.666Z,98118.09
2018-09-13T03:10:22.271Z,98117.20
2018-09-13T03:10:53.878Z,98115.11
2018-09-13T03:11:25.462Z,98106.55
2018-09-13T03:11:57.056Z,98112.97
2018-09-13T03:12:28.650Z,98108.23
2018-09-13T03:13:00.277Z,98112.13
2018-09-13T03:13:31.868Z,98100.16
2018-09-13T03:14:03.469Z,98107.42
2018-09-13T03:14:35.074Z,98106.57
2018-09-13T03:15:06.673Z,98110.00
2018-09-13T03:15:38.254Z,98102.73
2018-09-13T03:16:09.849Z,98099.33
2018-09-13T03:16:41.444Z,98104.45
2018-09-13T03:17:13.054Z,98103.59
2018-09-13T03:17:44.662Z,98102.31
2018-09-13T03:18:16.294Z,98101.89
2018-09-13T03:18:47.902Z,98102.31
2018-09-13T03:19:19.508Z,98102.33
2018-09-13T03:19:51.114Z,98109.16
2018-09-13T03:20:22.729Z,98100.66
2018-09-13T03:20:54.320Z,98101.94
2018-09-13T03:21:25.904Z,98101.94
2018-09-13T03:21:57.511Z,98096.42
2018-09-13T03:22:29.109Z,98102.80
2018-09-13T03:23:01.564Z,98096.83
2018-09-13T03:23:33.265Z,98095.55
2018-09-13T03:24:04.870Z,98100.27
2018-09-13T03:24:36.474Z,98103.67
2018-09-13T03:25:08.073Z,98103.67
2018-09-13T03:25:39.664Z,98105.39
2018-09-13T03:26:11.270Z,98107.53
2018-09-13T03:26:42.868Z,98107.12
2018-09-13T03:27:14.460Z,98109.24
2018-09-13T03:27:46.061Z,98073.51
2018-09-13T03:28:17.698Z,98104.97
2018-09-13T03:28:49.284Z,98111.39
2018-09-13T03:29:20.894Z,98108.40
2018-09-13T03:29:52.474Z,98109.30
2018-09-13T03:30:24.067Z,98106.30
2018-09-13T03:30:55.670Z,98109.68
2018-09-13T03:31:27.286Z,98105.02
2018-09-13T03:31:58.885Z,98106.74
2018-09-13T03:32:30.471Z,98105.88
2018-09-13T03:33:02.060Z,98109.30
2018-09-13T03:33:33.699Z,98107.17
2018-09-13T03:34:05.303Z,98104.25
2018-09-13T03:34:36.905Z,98099.06
2018-09-13T03:35:08.495Z,98102.91
2018-09-13T03:35:40.083Z,98105.91
2018-09-13T03:36:11.667Z,98105.96
2018-09-13T03:36:43.260Z,98111.91
2018-09-13T03:37:14.857Z,98105.91
2018-09-13T03:37:46.449Z,98108.05
2018-09-13T03:38:18.055Z,98107.62
2018-09-13T03:38:49.644Z,98107.63
2018-09-13T03:39:21.245Z,98110.66
2018-09-13T03:39:52.831Z,98110.25
2018-09-13T03:40:24.420Z,98105.55
2018-09-13T03:40:56.020Z,98108.10
2018-09-13T03:41:27.612Z,98109.43
2018-09-13T03:41:59.291Z,98115.39
2018-09-13T03:42:30.840Z,98108.12
2018-09-13T03:43:02.433Z,98118.80
2018-09-13T03:43:34.048Z,98114.53
2018-09-13T03:44:05.637Z,98111.97
2018-09-13T03:44:37.228Z,98106.91
2018-09-13T03:45:08.816Z,98115.39
2018-09-13T03:45:40.404Z,98117.11
2018-09-13T03:46:11.996Z,98115.41
2018-09-13T03:46:43.587Z,98113.70
2018-09-13T03:47:15.197Z,98114.98
2018-09-13T03:47:46.806Z,98115.84
2018-09-13T03:48:18.400Z,98117.97
2018-09-13T03:48:49.992Z,98107.34
2018-09-13T03:49:21.579Z,98116.73
2018-09-13T03:49:53.182Z,98110.32
2018-09-13T03:50:24.794Z,98105.63
2018-09-13T03:50:56.384Z,98106.48
2018-09-13T03:51:27.987Z,98110.34
2018-09-13T03:51:59.591Z,98115.47
2018-09-13T03:52:31.188Z,98105.64
2018-09-13T03:53:02.794Z,98109.91
2018-09-13T03:53:34.426Z,98105.22
2018-09-13T03:54:06.020Z,98108.21
2018-09-13T03:54:37.612Z,98105.64
2018-09-13T03:55:09.214Z,98115.48
2018-09-13T03:55:40.808Z,98100.11
2018-09-13T03:56:12.400Z,98106.92
2018-09-13T03:56:44.002Z,98105.66
2018-09-13T03:57:15.592Z,98108.65
2018-09-13T03:57:47.184Z,98102.25
2018-09-13T03:58:18.782Z,98100.16
2018-09-13T03:58:50.394Z,98101.02
2018-09-13T03:59:21.997Z,98104.00
2018-09-13T03:59:53.574Z,98103.58
2018-09-13T04:00:25.185Z,98104.00
2018-09-13T04:00:56.801Z,98107.42
2018-09-13T04:01:28.396Z,98106.09
2018-09-13T04:01:59.998Z,98103.59
2018-09-13T04:02:31.603Z,98107.00
2018-09-13T04:03:03.193Z,98104.44
2018-09-13T04:03:34.829Z,98108.28
2018-09-13T04:04:06.440Z,98068.27
2018-09-13T04:04:38.022Z,98098.47
2018-09-13T04:05:09.621Z,98102.75
2018-09-13T04:05:41.212Z,98101.47
2018-09-13T04:06:12.801Z,98098.91
2018-09-13T04:06:44.391Z,98101.89
2018-09-13T04:07:15.985Z,98096.78
2018-09-13T04:07:47.573Z,98102.33
2018-09-13T04:08:19.168Z,98092.91
2018-09-13T04:08:50.794Z,98094.64
2018-09-13T04:09:22.490Z,98100.23
2018-09-13T04:09:54.030Z,98098.48
2018-09-13T04:10:25.619Z,98098.91
2018-09-13T04:10:57.202Z,98092.93
2018-09-13T04:11:28.810Z,98096.34
2018-09-13T04:12:00.400Z,98096.78
2018-09-13T04:12:32.034Z,98094.69
2018-09-13T04:13:03.628Z,98090.37
2018-09-13T04:13:35.216Z,98094.21
2018-09-13T04:14:06.846Z,98095.50
2018-09-13T04:14:39.179Z,98090.41
2018-09-13T04:15:10.801Z,98091.27
2018-09-13T04:15:42.391Z,98092.55
2018-09-13T04:16:13.990Z,98092.57
2018-09-13T04:16:45.581Z,98090.51
2018-09-13T04:17:17.159Z,98094.29
2018-09-13T04:17:48.752Z,98084.08
2018-09-13T04:18:20.327Z,98096.85
2018-09-13T04:18:51.969Z,98090.44
2018-09-13T04:19:23.564Z,98092.58
2018-09-13T04:19:55.161Z,98098.58
2018-09-13T04:20:26.748Z,98103.31
2018-09-13T04:20:58.336Z,98104.98
2018-09-13T04:21:29.943Z,98099.47
2018-09-13T04:22:01.535Z,98108.83
2018-09-13T04:22:33.160Z,98108.45
2018-09-13T04:23:04.768Z,98111.40
2018-09-13T04:23:36.361Z,98111.87
2018-09-13T04:24:07.979Z,98111.01
2018-09-13T04:24:39.573Z,98118.70
2018-09-13T04:25:11.155Z,98114.43
2018-09-13T04:25:42.748Z,98116.58
2018-09-13T04:26:14.344Z,98120.03
2018-09-13T04:26:45.938Z,98117.03
2018-09-13T04:27:17.531Z,98115.30
2018-09-13T04:27:49.134Z,98114.45
2018-09-13T04:28:20.724Z,98118.73
2018-09-13T04:28:52.359Z,98111.03
2018-09-13T04:29:23.967Z,98121.30
2018-09-13T04:29:55.551Z,98114.04
2018-09-13T04:30:27.149Z,98118.73
2018-09-13T04:30:58.753Z,98114.48
2018-09-13T04:31:30.342Z,98117.89
2018-09-13T04:32:01.927Z,98114.90
2018-09-13T04:32:33.520Z,98116.60
2018-09-13T04:33:05.109Z,98114.48
2018-09-13T04:33:36.704Z,98115.76
2018-09-13T04:34:08.308Z,98115.76
2018-09-13T04:34:39.915Z,98117.04
2018-09-13T04:35:11.509Z,98121.78
2018-09-13T04:35:43.121Z,98122.59
2018-09-13T04:36:14.730Z,98118.80
2018-09-13T04:36:46.347Z,98116.66
2018-09-13T04:37:17.944Z,98113.26
2018-09-13T04:37:49.537Z,98114.95
2018-09-13T04:38:21.123Z,98117.52
2018-09-13T04:38:52.717Z,98114.52
2018-09-13T04:39:24.358Z,98113.67
2018-09-13T04:39:55.947Z,98118.81
2018-09-13T04:40:27.530Z,98116.66
2018-09-13T04:40:59.119Z,98121.80
2018-09-13T04:41:30.733Z,98087.34
2018-09-13T04:42:02.335Z,98115.82
2018-09-13T04:42:33.928Z,98116.66
2018-09-13T04:43:05.520Z,98116.68
2018-09-13T04:43:37.110Z,98112.83
2018-09-13T04:44:08.718Z,98116.24
2018-09-13T04:44:40.322Z,98119.27
2018-09-13T04:45:11.918Z,98115.82
2018-09-13T04:45:43.511Z,98118.82
2018-09-13T04:46:15.105Z,98120.10
2018-09-13T04:46:46.714Z,98117.98
2018-09-13T04:47:18.314Z,98121.83
2018-09-13T04:47:49.918Z,98126.56
2018-09-13T04:48:21.512Z,98116.76
2018-09-13T04:48:53.102Z,98125.67
2018-09-13T04:49:24.742Z,98120.16
2018-09-13T04:49:56.349Z,98120.16
2018-09-13T04:50:27.941Z,98121.44
2018-09-13T04:50:59.546Z,98126.14
2018-09-13T04:51:31.137Z,98124.44
2018-09-13T04:52:02.748Z,98122.72
2018-09-13T04:52:34.340Z,98127.86
2018-09-13T04:53:05.940Z,98127.00
2018-09-13T04:53:37.527Z,98130.42
2018-09-13T04:54:09.116Z,98127.86
2018-09-13T04:54:40.750Z,98126.16
2018-09-13T04:55:12.338Z,98130.84
2018-09-13T04:55:43.987Z,98127.44
2018-09-13T04:56:15.580Z,98132.13
2018-09-13T04:56:47.168Z,98137.69
2018-09-13T04:57:18.774Z,98128.72
2018-09-13T04:57:50.364Z,98127.88
2018-09-13T04:58:21.942Z,98114.52
2018-09-13T04:58:53.546Z,98129.16
2018-09-13T04:59:25.139Z,98131.72
2018-09-13T04:59:56.756Z,98130.88
2018-09-13T05:00:28.359Z,98133.86
2018-09-13T05:00:59.952Z,98132.16
2018-09-13T05:01:31.560Z,98128.36
2018-09-13T05:02:03.165Z,98132.59
2018-09-13T05:02:34.751Z,98127.89
2018-09-13T05:03:06.326Z,98131.38
2018-09-13T05:03:37.929Z,98133.02
2018-09-13T05:04:09.528Z,98136.00
2018-09-13T05:04:41.134Z,98131.31
2018-09-13T05:05:12.750Z,98142.41
2018-09-13T05:05:44.353Z,98136.44
2018-09-13T05:06:15.962Z,98135.20
2018-09-13T05:06:47.554Z,98136.06
2018-09-13T05:07:19.157Z,98138.61
2018-09-13T05:07:50.762Z,98137.77
2018-09-13T05:08:22.354Z,98142.46
2018-09-13T05:08:53.958Z,98142.04
2018-09-13T05:09:25.553Z,98141.18
2018-09-13T05:09:57.159Z,98141.19
2018-09-13T05:10:28.752Z,98135.20
2018-09-13T05:11:00.340Z,98142.05
2018-09-13T05:11:31.949Z,98142.04
2018-09-13T05:12:03.526Z,98143.75
2018-09-13T05:12:35.130Z,98143.75
2018-09-13T05:13:06.720Z,98137.36
2018-09-13T05:13:38.326Z,98138.64
2018-09-13T05:14:09.916Z,98135.66
2018-09-13T05:14:41.524Z,98136.08
2018-09-13T05:15:13.118Z,98135.30
2018-09-13T05:15:44.763Z,98140.36
2018-09-13T05:16:16.361Z,98137.38
2018-09-13T05:16:47.966Z,98138.70
2018-09-13T05:17:19.571Z,98137.84
2018-09-13T05:17:51.174Z,98135.23
2018-09-13T05:18:22.760Z,98137.84
2018-09-13T05:18:54.362Z,98136.14
2018-09-13T05:19:25.967Z,98139.94
2018-09-13T05:19:57.566Z,98136.09
2018-09-13T05:20:29.159Z,98134.86
2018-09-13T05:21:00.781Z,98136.58
2018-09-13T05:21:32.376Z,98134.47
2018-09-13T05:22:03.964Z,98132.73
2018-09-13T05:22:35.557Z,98130.60
2018-09-13T05:23:07.159Z,98138.28
2018-09-13T05:23:38.753Z,98138.30
2018-09-13T05:24:10.363Z,98137.44
2018-09-13T05:24:41.961Z,98140.44
2018-09-13T05:25:13.546Z,98140.44
2018-09-13T05:25:45.151Z,98137.02
2018-09-13T05:26:16.788Z,98137.44
2018-09-13T05:26:48.376Z,98136.16
2018-09-13T05:27:19.979Z,98138.35
2018-09-13T05:27:51.572Z,98137.88
2018-09-13T05:28:23.164Z,98137.45
2018-09-13T05:28:54.752Z,98144.72
2018-09-13T05:29:26.341Z,98136.61
2018-09-13T05:29:57.918Z,98134.47
2018-09-13T05:30:29.507Z,98135.75
2018-09-13T05:31:01.113Z,98135.75
2018-09-13T05:31:32.781Z,98135.32
2018-09-13T05:32:04.380Z,98135.79
2018-09-13T05:32:35.958Z,98135.38
2018-09-13T05:33:07.553Z,98139.17
2018-09-13T05:33:39.159Z,98138.35
2018-09-13T05:34:10.769Z,98136.21
2018-09-13T05:34:42.356Z,98131.09
2018-09-13T05:35:13.940Z,98134.51
2018-09-13T05:35:45.547Z,98135.38
2018-09-13T05:36:17.136Z,98135.79
2018-09-13T05:36:48.742Z,98131.10
2018-09-13T05:37:20.345Z,98129.38
2018-09-13T05:37:51.932Z,98131.10
2018-09-13T05:38:23.524Z,98133.23
2018-09-13T05:38:55.207Z,98128.13
2018-09-13T05:39:26.756Z,98127.25
2018-09-13T05:39:58.345Z,98121.72
2018-09-13T05:40:29.936Z,98128.52
2018-09-13T05:41:01.530Z,98117.84
2018-09-13T05:41:33.135Z,98122.11
2018-09-13T05:42:04.766Z,98122.97
2018-09-13T05:42:36.366Z,98125.53
2018-09-13T05:43:07.971Z,98119.56
2018-09-13T05:43:39.556Z,98118.28
2018-09-13T05:44:11.203Z,98117.86
2018-09-13T05:44:42.882Z,98123.41
2018-09-13T05:45:14.424Z,98116.16
2018-09-13T05:45:46.026Z,98117.86
2018-09-13T05:46:17.634Z,98116.16
2018-09-13T05:46:49.231Z,98114.02
2018-09-13T05:47:20.848Z,98117.44
2018-09-13T05:47:52.460Z,98113.65
2018-09-13T05:48:24.048Z,98111.02
2018-09-13T05:48:55.644Z,98112.80
2018-09-13T05:49:27.233Z,98116.58
2018-09-13T05:49:58.838Z,98116.16
2018-09-13T05:50:30.441Z,98112.32
2018-09-13T05:51:02.103Z,98112.30
2018-09-13T05:51:33.671Z,98115.31
2018-09-13T05:52:05.326Z,98113.16
2018-09-13T05:52:36.930Z,98116.58
2018-09-13T05:53:08.515Z,98113.61
2018-09-13T05:53:40.118Z,98114.03
2018-09-13T05:54:11.716Z,98116.59
2018-09-13T05:54:43.304Z,98113.61
2018-09-13T05:55:14.893Z,98111.47
2018-09-13T05:55:46.479Z,98114.89
2018-09-13T05:56:18.072Z,98109.34
2018-09-13T05:56:49.663Z,98113.18
2018-09-13T05:57:21.293Z,98119.17
2018-09-13T05:57:52.898Z,98111.90
2018-09-13T05:58:24.492Z,98105.06
2018-09-13T05:58:56.084Z,98109.84
2018-09-13T05:59:27.769Z,98081.66
2018-09-13T05:59:59.376Z,98111.48
2018-09-13T06:00:30.987Z,98105.96
2018-09-13T06:01:02.589Z,98111.48
2018-09-13T06:01:34.184Z,98115.75
2018-09-13T06:02:05.786Z,98117.03
2018-09-13T06:02:37.380Z,98111.90
2018-09-13T06:03:08.991Z,98121.30
2018-09-13T06:03:40.594Z,98112.37
2018-09-13T06:04:12.184Z,98116.21
2018-09-13T06:04:43.790Z,98117.50
2018-09-13T06:05:15.395Z,98116.60
2018-09-13T06:05:46.998Z,98117.89
2018-09-13T06:06:18.602Z,98124.36
2018-09-13T06:06:50.192Z,98120.88
2018-09-13T06:07:21.771Z,98120.45
2018-09-13T06:07:53.374Z,98124.30
2018-09-13T06:08:24.982Z,98123.44
2018-09-13T06:08:56.593Z,98121.34
2018-09-13T06:09:28.175Z,98122.16
2018-09-13T06:09:59.781Z,98123.86
2018-09-13T06:10:31.372Z,98120.02
2018-09-13T06:11:02.965Z,98125.58
2018-09-13T06:11:34.546Z,98120.06
2018-09-13T06:12:06.139Z,98125.19